Barnesville, Minnesota
Current Conditions -  °F | °C
As of 5:31 AM on Friday 28 Nov 2014 (Local Time) from KJKJ Reporting Station
Overcast Overcast  
Wind Chill:   Ceiling: 4300
Heat Index: 12°   Visibility: 10mi
Dew Point:   Wind: 7mph
Humidity: 85%   Direction: 150°SSE
Pressure: 30.01"   Gusts: NA
Location:  46.65°N, 96.42°W
Report Text: KJKJ 281131Z AUTO 15006KT 10SM SCT013 SCT033 OVC043 M11/M13 A3001 RMK AO2
Loading
Personal Weather Stations






























Interactive Weather Map New forecast layout! Learn more

10-Day Weather Forecast

Advertisements
Track Severe Weather on mobile